Terminal Aerodrome Forecast
Issued by NWS Billings, MT

Home | Current Version | Previous Version | Text Only | Print | Product List | Glossary Off
Versions: 1 2 3 4 5 6 7 8 9 10 11 12 13 14

000
FTUS45 KBYZ 142320
TAFMLS
TAF
KMLS 142320Z 1500/1524 VRB06KT P6SM BKN060
     FM151300 VRB06KT P6SM SCT100
     FM151800 26006KT P6SM SCT100=

USA.gov is the U.S. government's official web portal to all federal, state and local government web resources and services.